Time;durP1;ratioP1;P1;durP2;ratioP2;P2;SDS_P1;SDS_P2;PMS_P1;PMS_P2;Temp;Humidity;BMP_temperature;BMP_pressure;BME280_temperature;BME280_humidity;BME280_pressure;Samples;Min_cycle;Max_cycle;Signal;HPM_P1;HPM_P2
2023/10/03 00:00:31;;;;;;;5.32;1.40;;;;;;;10.60;69.13;100062.13;5050303;28;20029;-62
2023/10/03 00:02:59;;;;;;;7.72;1.70;;;;;;;10.59;69.46;100065.75;5051608;28;20086;-62
2023/10/03 00:05:31;;;;;;;3.35;1.50;;;;;;;10.46;69.42;100050.66;5052501;28;20127;-61
2023/10/03 00:08:00;;;;;;;1.90;1.10;;;;;;;10.54;69.30;100068.81;5052078;28;20034;-62
2023/10/03 00:10:26;;;;;;;4.65;1.30;;;;;;;10.46;69.86;100064.03;5052038;28;20031;-63
2023/10/03 00:12:52;;;;;;;3.10;1.38;;;;;;;10.42;69.94;100070.59;5050105;28;20529;-61
2023/10/03 00:15:21;;;;;;;5.00;1.63;;;;;;;10.42;70.13;100064.38;5031970;28;20037;-62
2023/10/03 00:17:47;;;;;;;5.45;1.70;;;;;;;10.37;70.30;100074.56;5041199;28;20432;-62
2023/10/03 00:20:16;;;;;;;3.72;1.45;;;;;;;10.37;70.25;100077.25;5052933;28;20033;-62
2023/10/03 00:22:43;;;;;;;4.00;1.67;;;;;;;10.31;70.53;100067.84;5052598;28;20032;-62
2023/10/03 00:25:11;;;;;;;4.00;1.08;;;;;;;10.34;70.38;100059.56;5050202;28;20033;-62
2023/10/03 00:27:37;;;;;;;5.47;1.38;;;;;;;10.11;70.61;100029.22;5051036;28;20510;-62
2023/10/03 00:30:06;;;;;;;2.38;1.50;;;;;;;10.29;70.67;100069.78;5052628;28;20112;-62
2023/10/03 00:32:33;;;;;;;2.42;1.17;;;;;;;10.25;70.56;100060.28;5052092;28;20040;-61
2023/10/03 00:34:59;;;;;;;4.57;1.52;;;;;;;10.12;70.82;100046.97;5051481;28;20057;-62
2023/10/03 00:37:25;;;;;;;4.88;1.52;;;;;;;10.14;70.99;100056.63;5050705;28;20123;-62
2023/10/03 00:39:51;;;;;;;4.72;1.25;;;;;;;10.11;71.28;100056.81;5035245;28;20032;-62
2023/10/03 00:42:16;;;;;;;7.03;1.48;;;;;;;10.05;71.70;100055.47;5051649;28;20033;-62
2023/10/03 00:44:42;;;;;;;3.35;1.40;;;;;;;10.02;71.92;100055.72;5051883;28;20024;-61
2023/10/03 00:47:07;;;;;;;2.65;1.42;;;;;;;10.00;71.97;100056.78;5054806;28;20036;-62
2023/10/03 00:49:36;;;;;;;2.90;1.30;;;;;;;10.00;72.01;100059.47;5053977;28;20048;-62
2023/10/03 00:52:05;;;;;;;3.40;1.25;;;;;;;9.92;72.26;100070.72;5040258;28;20403;-63
2023/10/03 00:54:32;;;;;;;2.90;1.42;;;;;;;9.90;72.24;100070.84;5045177;28;20037;-62
2023/10/03 00:56:58;;;;;;;2.83;1.30;;;;;;;9.84;72.52;100065.94;5054984;28;20116;-61
2023/10/03 00:59:24;;;;;;;10.23;1.70;;;;;;;9.86;72.64;100068.50;5054345;28;20501;-62
2023/10/03 01:01:49;;;;;;;7.00;2.30;;;;;;;9.83;72.82;100066.91;5055729;28;20047;-62
2023/10/03 01:04:19;;;;;;;4.85;1.60;;;;;;;9.75;72.98;100055.94;5055847;28;20029;-62
2023/10/03 01:06:47;;;;;;;5.57;1.70;;;;;;;9.82;73.42;100062.53;5055741;28;20074;-61
2023/10/03 01:09:24;;;;;;;5.68;1.75;;;;;;;9.61;73.24;100033.72;5056039;28;20093;-62
2023/10/03 01:11:52;;;;;;;3.85;1.70;;;;;;;9.62;73.37;100034.59;5053772;28;20190;-62
2023/10/03 01:14:18;;;;;;;5.47;1.65;;;;;;;9.62;73.36;100054.13;5039461;28;20074;-67
2023/10/03 01:16:45;;;;;;;4.68;1.80;;;;;;;9.65;73.75;100065.59;5035713;28;20080;-62
2023/10/03 01:19:20;;;;;;;5.75;1.85;;;;;;;9.63;74.26;100068.38;5035657;28;20403;-63
2023/10/03 01:21:47;;;;;;;7.13;1.88;;;;;;;9.60;74.04;100071.28;5035540;28;20040;-63
2023/10/03 01:24:15;;;;;;;5.47;1.75;;;;;;;9.56;74.10;100075.13;5035026;28;20029;-63
2023/10/03 01:26:40;;;;;;;4.63;2.13;;;;;;;9.52;74.49;100068.28;5035217;28;20120;-61
2023/10/03 01:29:06;;;;;;;5.30;1.92;;;;;;;9.51;74.61;100074.59;5034790;28;20108;-61
2023/10/03 01:31:31;;;;;;;4.05;1.80;;;;;;;9.47;74.70;100076.66;5037033;28;20033;-62
2023/10/03 01:33:57;;;;;;;4.07;1.60;;;;;;;9.50;74.72;100070.22;5035056;28;20044;-62
2023/10/03 01:36:22;;;;;;;5.65;1.63;;;;;;;9.52;74.69;100069.16;5034722;28;20180;-62
2023/10/03 01:38:48;;;;;;;5.53;1.70;;;;;;;9.60;74.72;100065.94;5035452;28;20069;-62
2023/10/03 01:41:14;;;;;;;4.30;1.23;;;;;;;9.73;74.50;100073.91;5034615;28;20025;-62
2023/10/03 01:43:43;;;;;;;3.47;1.60;;;;;;;9.69;74.19;100045.69;5034116;28;20084;-63
2023/10/03 01:46:10;;;;;;;4.90;1.90;;;;;;;10.01;73.99;100062.03;5034901;28;20041;-61
2023/10/03 01:48:36;;;;;;;6.82;1.98;;;;;;;9.97;73.70;100036.44;5048601;28;20510;-63
2023/10/03 01:51:02;;;;;;;5.47;2.20;;;;;;;10.27;73.33;100066.38;5054797;28;20065;-62
2023/10/03 01:53:29;;;;;;;5.15;1.83;;;;;;;10.40;72.44;100064.53;5054704;28;20033;-63
2023/10/03 01:55:56;;;;;;;4.63;1.98;;;;;;;10.48;72.16;100072.81;5054327;28;20114;-62
2023/10/03 01:58:24;;;;;;;3.22;1.65;;;;;;;10.42;71.48;100046.50;5054240;28;20032;-61
2023/10/03 02:00:50;;;;;;;5.32;2.00;;;;;;;10.68;71.26;100075.78;5053148;28;20336;-62
2023/10/03 02:03:16;;;;;;;4.55;1.80;;;;;;;10.76;70.93;100065.31;5049838;28;20145;-62
2023/10/03 02:05:44;;;;;;;7.80;2.25;;;;;;;10.81;70.45;100059.63;5054222;28;20820;-62
2023/10/03 02:08:15;;;;;;;5.32;2.17;;;;;;;10.89;70.35;100067.88;5054859;28;20036;-61
2023/10/03 02:10:44;;;;;;;4.20;1.98;;;;;;;10.96;70.28;100078.13;5052690;28;20041;-62
2023/10/03 02:13:17;;;;;;;4.10;2.40;;;;;;;11.00;69.87;100082.28;5034090;28;20053;-62
2023/10/03 02:15:49;;;;;;;3.80;2.38;;;;;;;11.05;69.56;100072.91;5034346;28;20444;-62
2023/10/03 02:18:17;;;;;;;6.28;2.78;;;;;;;11.00;69.13;100072.41;5035249;28;20464;-61
2023/10/03 02:20:58;;;;;;;5.47;2.72;;;;;;;11.12;69.29;100088.50;5034168;28;20037;-62
2023/10/03 02:23:45;;;;;;;5.93;2.70;;;;;;;11.13;69.04;100079.50;5033716;28;20349;-61
2023/10/03 02:26:11;;;;;;;5.15;2.55;;;;;;;11.11;69.29;100092.16;5035343;28;20510;-62
2023/10/03 02:28:41;;;;;;;5.50;2.65;;;;;;;11.10;68.95;100077.06;5033916;28;20029;-63
2023/10/03 02:31:07;;;;;;;6.95;2.70;;;;;;;11.15;68.76;100088.25;5033598;28;20123;-61
2023/10/03 02:33:40;;;;;;;8.52;3.13;;;;;;;11.15;68.90;100081.06;5034313;28;20068;-62
2023/10/03 02:36:07;;;;;;;6.38;2.78;;;;;;;11.24;68.56;100092.03;5035127;28;20094;-62
2023/10/03 02:38:38;;;;;;;4.70;2.38;;;;;;;11.26;68.64;100095.47;5033734;28;20037;-62
2023/10/03 02:41:10;;;;;;;6.03;2.55;;;;;;;11.27;68.43;100089.97;5033445;28;20075;-61
2023/10/03 02:43:38;;;;;;;4.63;2.75;;;;;;;11.30;68.42;100100.44;5035032;28;20471;-61
2023/10/03 02:46:05;;;;;;;3.85;2.50;;;;;;;11.25;68.21;100088.38;5033932;28;20036;-62
2023/10/03 02:48:30;;;;;;;6.18;2.50;;;;;;;11.13;67.97;100071.47;5032655;28;20033;-62
2023/10/03 02:50:56;;;;;;;4.05;2.30;;;;;;;11.27;68.05;100091.81;5032266;28;20053;-61
2023/10/03 02:53:22;;;;;;;3.40;2.00;;;;;;;11.29;68.03;100096.03;5034171;28;20433;-62
2023/10/03 02:55:49;;;;;;;5.30;2.00;;;;;;;11.29;68.00;100098.72;5035053;28;20065;-62
2023/10/03 02:58:19;;;;;;;8.85;2.05;;;;;;;11.26;67.43;100098.97;5033287;28;20128;-62
2023/10/03 03:00:49;;;;;;;3.92;1.50;;;;;;;11.21;67.30;100098.50;5033166;28;20033;-63
2023/10/03 03:03:14;;;;;;;3.70;1.33;;;;;;;11.19;67.29;100097.75;5033665;28;20033;-62
2023/10/03 03:05:42;;;;;;;3.70;1.73;;;;;;;11.16;67.19;100106.06;5034840;28;20101;-62
2023/10/03 03:10:55;;;;;;;2.20;1.13;;;;;;;11.11;67.03;100087.63;5033053;28;20112;-63
2023/10/03 03:13:35;;;;;;;3.17;1.35;;;;;;;11.14;66.78;100102.63;5034740;28;20143;-62
2023/10/03 03:16:03;;;;;;;2.92;1.35;;;;;;;11.16;66.58;100089.97;5033212;28;20494;-62
2023/10/03 03:18:42;;;;;;;3.85;1.13;;;;;;;11.19;66.64;100087.03;5032746;28;20040;-63
2023/10/03 03:21:15;;;;;;;1.95;1.17;;;;;;;11.24;66.27;100087.53;5033056;28;20080;-62
2023/10/03 03:23:42;;;;;;;3.25;1.05;;;;;;;11.21;66.14;100082.41;5033067;28;20025;-62
2023/10/03 03:26:17;;;;;;;2.85;1.00;;;;;;;11.22;66.29;100092.16;5032906;28;20110;-61
2023/10/03 03:28:45;;;;;;;2.42;1.20;;;;;;;11.16;66.05;100080.09;5033867;28;20025;-61
2023/10/03 03:31:22;;;;;;;2.58;1.02;;;;;;;11.23;66.28;100101.06;5032789;28;20038;-62
2023/10/03 03:33:51;;;;;;;1.70;1.15;;;;;;;11.20;65.93;100088.75;5033310;28;20108;-63
2023/10/03 03:36:19;;;;;;;3.03;1.13;;;;;;;11.19;65.71;100089.72;5032724;28;20136;-62
2023/10/03 03:38:47;;;;;;;3.42;1.10;;;;;;;10.95;65.90;100058.53;5032702;28;20037;-61
2023/10/03 03:41:13;;;;;;;3.67;1.08;;;;;;;11.13;66.38;100098.25;5032804;28;20423;-61
2023/10/03 03:43:39;;;;;;;2.47;1.25;;;;;;;11.08;66.12;100087.88;5032410;28;20029;-62
2023/10/03 03:46:05;;;;;;;4.88;1.10;;;;;;;11.07;66.23;100099.59;5032740;28;20057;-62
2023/10/03 03:48:34;;;;;;;2.10;1.20;;;;;;;10.85;66.30;100076.28;5033637;28;20113;-61
2023/10/03 03:51:00;;;;;;;2.67;1.10;;;;;;;10.67;66.54;100058.00;5031132;28;20068;-62
2023/10/03 03:53:26;;;;;;;2.95;1.20;;;;;;;10.82;66.85;100097.94;5033170;28;20201;-62
2023/10/03 03:55:51;;;;;;;2.90;1.25;;;;;;;10.72;67.25;100092.44;5033610;28;20104;-62
2023/10/03 03:58:18;;;;;;;3.97;1.15;;;;;;;10.67;67.21;100105.34;5032296;28;20045;-63
2023/10/03 04:00:52;;;;;;;3.08;1.35;;;;;;;10.66;67.64;100099.16;5032315;28;20033;-63
2023/10/03 04:03:18;;;;;;;3.30;1.05;;;;;;;10.62;67.48;100098.53;5033003;28;20246;-62
2023/10/03 04:05:47;;;;;;;3.53;1.20;;;;;;;10.61;67.79;100098.66;5033303;28;20487;-62
2023/10/03 04:08:13;;;;;;;2.88;1.25;;;;;;;10.62;67.83;100087.81;5032197;28;20041;-62
2023/10/03 04:10:38;;;;;;;7.65;2.30;;;;;;;10.72;67.92;100093.31;5032409;28;20033;-62
2023/10/03 04:13:09;;;;;;;6.38;2.40;;;;;;;10.77;67.78;100093.81;5033347;28;20419;-62
2023/10/03 04:15:35;;;;;;;7.65;2.50;;;;;;;10.84;68.02;100091.50;5014861;28;20037;-62
2023/10/03 04:18:01;;;;;;;6.22;2.42;;;;;;;10.98;67.66;100086.91;5031820;28;20395;-64
2023/10/03 04:20:35;;;;;;;6.75;2.53;;;;;;;11.67;65.67;100087.75;5038498;28;20171;-62
2023/10/03 04:23:03;;;;;;;5.75;2.20;;;;;;;12.67;62.47;100097.41;5042222;28;20071;-64
2023/10/03 04:25:30;;;;;;;5.75;2.55;;;;;;;13.12;60.57;100092.72;5057745;28;20167;-62
2023/10/03 04:27:56;;;;;;;6.10;2.25;;;;;;;13.12;60.16;100101.63;5058230;28;20033;-63
2023/10/03 04:30:26;;;;;;;7.20;2.58;;;;;;;12.96;60.37;100099.41;5059460;28;20048;-62
2023/10/03 04:32:54;;;;;;;4.00;2.25;;;;;;;12.74;61.13;100098.56;5058612;28;20036;-62
2023/10/03 04:35:20;;;;;;;6.10;2.25;;;;;;;12.61;61.79;100103.31;5058470;28;20084;-62
2023/10/03 04:37:48;;;;;;;9.13;2.58;;;;;;;12.83;61.42;100106.84;5058277;28;20533;-63
2023/10/03 04:40:16;;;;;;;4.70;2.60;;;;;;;13.55;59.45;100104.25;5057209;28;20158;-62
2023/10/03 04:42:45;;;;;;;4.90;2.35;;;;;;;14.54;56.62;100100.69;5056449;28;20056;-62
2023/10/03 04:45:14;;;;;;;6.45;2.33;;;;;;;15.60;53.23;100099.72;5058375;28;20040;-62
2023/10/03 04:47:45;;;;;;;12.35;2.72;;;;;;;16.47;50.67;100093.88;5058224;28;20041;-61
2023/10/03 04:50:11;;;;;;;5.10;2.42;;;;;;;17.12;48.72;100096.38;5059050;28;20036;-62
2023/10/03 04:52:38;;;;;;;4.90;2.58;;;;;;;17.57;47.08;100073.59;5058516;28;20051;-66
2023/10/03 04:55:04;;;;;;;7.13;2.50;;;;;;;18.67;44.75;100096.19;5058479;28;20104;-65
2023/10/03 04:57:30;;;;;;;7.20;2.60;;;;;;;19.05;43.18;100082.06;5056958;28;20033;-62
2023/10/03 05:00:05;;;;;;;10.43;2.60;;;;;;;19.40;42.23;100070.94;5058576;28;20040;-65
2023/10/03 05:02:31;;;;;;;5.28;2.35;;;;;;;19.54;42.02;100094.66;5057948;28;20036;-63
2023/10/03 05:04:57;;;;;;;8.27;2.70;;;;;;;19.33;42.10;100093.38;5058571;28;20029;-63
2023/10/03 05:07:25;;;;;;;8.52;2.58;;;;;;;18.99;42.51;100097.19;5042035;28;20029;-63
2023/10/03 05:09:51;;;;;;;5.75;2.42;;;;;;;18.58;43.08;100089.91;5038762;28;20072;-63
2023/10/03 05:12:18;;;;;;;6.88;2.58;;;;;;;18.49;43.63;100093.66;5038596;28;20029;-62
2023/10/03 05:14:46;;;;;;;6.35;2.55;;;;;;;18.86;42.70;100086.00;5039386;28;20041;-63
2023/10/03 05:17:12;;;;;;;5.72;2.20;;;;;;;19.02;42.48;100099.53;5038515;28;20048;-62
2023/10/03 05:19:39;;;;;;;9.95;2.50;;;;;;;19.74;40.65;100096.91;5038169;28;20112;-62
2023/10/03 05:22:08;;;;;;;7.05;2.65;;;;;;;21.93;36.24;100085.41;5039528;28;20037;-63
2023/10/03 05:24:34;;;;;;;11.75;2.97;;;;;;;22.82;34.12;100041.56;5039501;28;20029;-63
2023/10/03 05:27:00;;;;;;;5.82;2.65;;;;;;;24.00;32.42;100078.09;5038459;28;20083;-63
2023/10/03 05:29:27;;;;;;;6.97;2.75;;;;;;;25.27;30.45;100084.66;5046176;28;20440;-62
2023/10/03 05:31:54;;;;;;;6.43;2.42;;;;;;;24.61;30.87;100081.75;5044593;28;20048;-63
2023/10/03 05:34:23;;;;;;;7.38;2.55;;;;;;;24.35;31.23;100077.09;5043065;28;20029;-63
2023/10/03 05:36:49;;;;;;;6.15;2.58;;;;;;;24.32;31.02;100083.00;5043885;28;20017;-63
2023/10/03 05:39:15;;;;;;;9.65;2.60;;;;;;;25.58;29.18;100079.53;5044758;28;20037;-62
2023/10/03 05:41:42;;;;;;;7.00;2.95;;;;;;;27.32;26.49;100080.19;5038265;28;20045;-64
2023/10/03 05:44:13;;;;;;;6.72;2.67;;;;;;;28.87;24.40;100075.28;5035246;28;20045;-63
2023/10/03 05:46:40;;;;;;;8.60;2.50;;;;;;;30.12;22.71;100083.44;5034943;28;20364;-63
2023/10/03 05:49:06;;;;;;;6.82;2.92;;;;;;;31.16;21.30;100080.44;5035254;28;20078;-63
2023/10/03 05:51:33;;;;;;;9.45;2.63;;;;;;;32.11;20.36;100073.00;5045821;28;20451;-65
2023/10/03 05:53:59;;;;;;;8.68;2.72;;;;;;;32.77;19.76;100092.16;5044002;28;20021;-64
2023/10/03 05:56:25;;;;;;;10.98;3.08;;;;;;;33.38;18.76;100089.25;5035362;28;20087;-62
2023/10/03 05:58:50;;;;;;;11.00;2.67;;;;;;;33.94;18.27;100085.84;5040765;28;20041;-63
2023/10/03 06:01:16;;;;;;;9.32;3.00;;;;;;;34.45;17.15;100090.66;5043235;28;20032;-63
2023/10/03 06:03:42;;;;;;;6.63;2.47;;;;;;;34.55;16.94;100072.34;5044641;28;20094;-62
2023/10/03 06:06:07;;;;;;;5.13;2.63;;;;;;;35.11;16.09;100102.06;5035392;28;20470;-57
2023/10/03 06:08:33;;;;;;;3.70;2.15;;;;;;;35.71;15.52;100097.69;5036613;28;20025;-57
2023/10/03 06:11:00;;;;;;;4.68;2.25;;;;;;;35.97;15.11;100091.97;5034649;28;20041;-55
2023/10/03 06:13:26;;;;;;;8.07;2.60;;;;;;;36.30;14.51;100104.31;5042579;28;20766;-57
2023/10/03 06:15:52;;;;;;;5.95;2.00;;;;;;;36.62;14.47;100093.75;5045556;28;20068;-58
2023/10/03 06:18:18;;;;;;;6.88;2.38;;;;;;;37.05;13.55;100096.72;5054136;28;20513;-59
2023/10/03 06:20:43;;;;;;;5.40;2.20;;;;;;;37.48;13.97;100089.53;5054216;28;20036;-58
2023/10/03 06:23:09;;;;;;;7.30;2.28;;;;;;;37.86;13.28;100092.41;5044872;28;20033;-57
2023/10/03 06:25:35;;;;;;;7.55;2.22;;;;;;;38.02;12.73;100090.25;5038482;28;20033;-55
2023/10/03 06:28:04;;;;;;;2.25;2.03;;;;;;;38.02;13.16;100089.41;5034387;28;20044;-59
2023/10/03 06:30:30;;;;;;;5.97;2.20;;;;;;;38.01;12.89;100087.75;5034082;28;20033;-56
2023/10/03 06:32:55;;;;;;;5.57;2.55;;;;;;;38.34;12.29;100085.81;5034161;28;20112;-60
2023/10/03 06:35:20;;;;;;;6.72;2.42;;;;;;;38.77;12.21;100078.41;5034354;28;20041;-58
2023/10/03 06:37:48;;;;;;;5.60;2.80;;;;;;;39.11;12.07;100068.81;5033900;28;20064;-59
2023/10/03 06:40:13;;;;;;;5.13;2.17;;;;;;;39.50;12.00;100080.66;5033949;28;20168;-56
2023/10/03 06:42:40;;;;;;;4.45;2.63;;;;;;;39.75;11.30;100086.81;5033508;28;20495;-56
2023/10/03 06:45:13;;;;;;;4.60;2.70;;;;;;;39.96;11.29;100094.81;5053169;28;20033;-58
2023/10/03 06:47:39;;;;;;;10.50;2.85;;;;;;;40.50;10.69;100083.69;5053718;28;20043;-58
2023/10/03 06:50:05;;;;;;;6.03;2.30;;;;;;;40.79;10.52;100093.63;5052196;28;20030;-54
2023/10/03 06:52:32;;;;;;;4.85;2.50;;;;;;;40.72;10.66;100091.28;5053613;28;20075;-58
2023/10/03 06:54:58;;;;;;;3.17;1.88;;;;;;;40.53;10.58;100093.47;5035176;28;20033;-53
2023/10/03 06:57:24;;;;;;;4.68;2.30;;;;;;;40.47;10.44;100085.16;5034118;28;20383;-57
2023/10/03 06:59:50;;;;;;;3.90;2.30;;;;;;;40.73;10.22;100080.88;5033379;28;20107;-55
2023/10/03 07:02:15;;;;;;;4.90;2.45;;;;;;;41.14;10.13;100079.75;5033688;28;20029;-56
2023/10/03 07:04:41;;;;;;;4.28;2.15;;;;;;;41.26;10.13;100087.59;5049155;28;20347;-56
2023/10/03 07:07:07;;;;;;;5.15;2.17;;;;;;;41.24;9.90;100087.09;5051989;28;20444;-60
2023/10/03 07:09:33;;;;;;;4.50;2.30;;;;;;;41.31;9.70;100084.63;5042844;28;20036;-55
2023/10/03 07:11:59;;;;;;;5.13;2.20;;;;;;;41.28;9.87;100090.06;5042559;28;20032;-57
2023/10/03 07:14:24;;;;;;;5.68;2.50;;;;;;;41.01;10.20;100081.53;5042788;28;20061;-56
2023/10/03 07:16:50;;;;;;;8.85;2.35;;;;;;;40.29;10.25;100091.81;5040973;28;20075;-56
2023/10/03 07:19:15;;;;;;;5.80;2.78;;;;;;;39.77;10.69;100084.53;5051120;28;20029;-59
2023/10/03 07:21:42;;;;;;;13.70;2.80;;;;;;;39.42;10.86;100087.00;5053052;28;20419;-57
2023/10/03 07:24:08;;;;;;;4.35;2.05;;;;;;;39.18;11.12;100085.22;5043775;28;20029;-58
2023/10/03 07:26:34;;;;;;;7.00;2.00;;;;;;;38.74;11.50;100077.03;5032771;28;20032;-58
2023/10/03 07:29:01;;;;;;;8.63;2.13;;;;;;;38.59;11.57;100077.34;5032797;28;20956;-57
2023/10/03 07:31:28;;;;;;;4.03;2.05;;;;;;;38.34;11.99;100077.44;5042070;28;20455;-60
2023/10/03 07:33:54;;;;;;;6.20;2.13;;;;;;;38.08;11.85;100085.38;5045492;28;20033;-58
2023/10/03 07:36:20;;;;;;;4.97;1.75;;;;;;;37.48;12.08;100078.34;5032898;28;20034;-58
2023/10/03 07:38:46;;;;;;;6.63;1.58;;;;;;;36.28;13.04;100083.44;5031921;28;20030;-59
2023/10/03 07:41:13;;;;;;;3.67;2.00;;;;;;;33.97;14.73;100071.44;5032789;28;20068;-55
2023/10/03 07:43:42;;;;;;;6.05;2.10;;;;;;;31.57;17.31;100086.50;5040882;28;20052;-59
2023/10/03 07:46:07;;;;;;;6.63;1.80;;;;;;;29.05;19.07;100082.59;5047496;28;20029;-59
2023/10/03 07:48:33;;;;;;;5.50;2.22;;;;;;;27.10;21.24;100089.94;5049340;28;20035;-61
2023/10/03 07:50:58;;;;;;;4.72;1.90;;;;;;;25.50;23.33;100078.72;5042394;28;20041;-59
2023/10/03 07:53:29;;;;;;;3.55;2.20;;;;;;;24.09;25.05;100056.88;5039933;28;20028;-59
2023/10/03 07:55:56;;;;;;;7.78;2.20;;;;;;;22.99;26.32;100058.47;5042035;28;20083;-61
2023/10/03 07:58:22;;;;;;;2.50;1.80;;;;;;;22.16;28.01;100065.31;5039895;28;20431;-55
2023/10/03 08:00:47;;;;;;;5.22;2.10;;;;;;;21.41;28.80;100057.31;5048366;28;20028;-59
2023/10/03 08:03:13;;;;;;;4.82;2.40;;;;;;;21.00;30.22;100066.81;5043379;28;20063;-58
2023/10/03 08:05:39;;;;;;;6.10;2.33;;;;;;;20.44;30.63;100029.06;5041569;28;20025;-63
2023/10/03 08:08:05;;;;;;;7.10;1.98;;;;;;;20.48;31.17;100066.56;5039524;28;20074;-61
2023/10/03 08:10:32;;;;;;;6.88;2.08;;;;;;;20.19;31.49;100070.03;5042014;28;20041;-62
2023/10/03 08:12:59;;;;;;;4.13;1.92;;;;;;;19.91;32.17;100059.69;5041588;28;20433;-61
2023/10/03 08:15:31;;;;;;;7.13;2.40;;;;;;;19.69;32.58;100066.72;5039555;28;20389;-63
2023/10/03 08:17:58;;;;;;;6.60;2.40;;;;;;;19.50;33.14;100044.41;5041479;28;20033;-62
2023/10/03 08:20:26;;;;;;;6.10;2.10;;;;;;;19.48;33.20;100041.91;5043009;28;20471;-61
2023/10/03 08:22:52;;;;;;;4.28;2.40;;;;;;;19.49;33.94;100042.72;5040773;28;20025;-62
2023/10/03 08:25:22;;;;;;;5.03;2.67;;;;;;;19.43;33.40;100048.88;5049023;28;20071;-61
2023/10/03 08:27:52;;;;;;;7.03;2.42;;;;;;;19.34;33.54;100056.19;5044645;28;20028;-62
2023/10/03 08:30:27;;;;;;;3.58;2.53;;;;;;;19.22;33.27;100047.59;5042068;28;20112;-61
2023/10/03 08:33:06;;;;;;;6.97;2.73;;;;;;;19.49;32.98;100037.28;5041607;28;20041;-61
2023/10/03 08:35:35;;;;;;;3.55;2.15;;;;;;;19.56;33.41;100043.72;5041138;28;20022;-62
2023/10/03 08:38:10;;;;;;;8.35;2.95;;;;;;;19.57;33.21;100040.00;5040427;28;20037;-62
2023/10/03 08:40:45;;;;;;;5.07;2.88;;;;;;;19.46;33.65;100043.94;5041074;28;20371;-62
2023/10/03 08:43:12;;;;;;;5.10;2.47;;;;;;;19.31;33.38;100030.28;5042044;28;20068;-61
2023/10/03 08:45:40;;;;;;;6.03;2.33;;;;;;;19.41;33.26;100031.91;5040484;28;20029;-62
2023/10/03 08:48:07;;;;;;;4.05;2.25;;;;;;;19.55;33.10;100036.59;5025784;28;20032;-61
2023/10/03 08:50:46;;;;;;;5.47;2.40;;;;;;;19.90;32.40;100033.53;5042846;28;20115;-60
2023/10/03 08:53:16;;;;;;;6.38;2.70;;;;;;;19.94;32.43;100030.28;5044567;28;20113;-60
2023/10/03 08:55:46;;;;;;;5.05;2.45;;;;;;;20.22;32.08;100027.00;5040700;28;20456;-61
2023/10/03 08:58:13;;;;;;;9.10;2.28;;;;;;;20.32;31.91;100029.47;5039496;28;20034;-59
2023/10/03 09:00:45;;;;;;;7.43;2.53;;;;;;;20.50;31.50;100029.16;5042848;28;20366;-61
2023/10/03 09:03:13;;;;;;;5.85;3.22;;;;;;;20.51;31.83;100019.13;5042081;28;20525;-60
2023/10/03 09:05:40;;;;;;;5.30;2.47;;;;;;;20.39;32.11;100015.16;5040142;28;20029;-59
2023/10/03 09:08:13;;;;;;;8.77;3.05;;;;;;;20.46;31.91;100022.38;5043059;28;20510;-61
2023/10/03 09:10:55;;;;;;;4.88;2.80;;;;;;;20.53;31.86;100017.06;5044194;28;20208;-61
2023/10/03 09:13:23;;;;;;;6.63;2.60;;;;;;;20.54;31.96;100017.91;5044903;28;20117;-61
2023/10/03 09:15:59;;;;;;;4.20;2.13;;;;;;;20.33;31.96;99989.56;5042080;28;20452;-62
2023/10/03 09:18:31;;;;;;;4.72;2.13;;;;;;;20.36;32.63;100000.06;5050852;28;20120;-62
2023/10/03 09:20:59;;;;;;;5.80;2.20;;;;;;;20.16;33.09;100022.31;5036941;28;20424;-65
2023/10/03 09:23:37;;;;;;;3.08;2.20;;;;;;;20.00;33.76;100019.69;5047998;28;20021;-63
2023/10/03 09:26:06;;;;;;;5.80;2.40;;;;;;;19.68;34.74;100008.00;5044741;28;20030;-62
2023/10/03 09:28:35;;;;;;;5.13;1.95;;;;;;;19.40;35.17;100005.78;5044528;28;20340;-61
2023/10/03 09:31:13;;;;;;;5.68;2.22;;;;;;;19.22;35.41;99986.03;5043574;28;20119;-60
2023/10/03 09:33:39;;;;;;;4.65;2.03;;;;;;;19.05;36.16;99997.97;5049229;28;20029;-61
2023/10/03 09:36:06;;;;;;;5.75;1.95;;;;;;;18.93;36.70;99987.47;5054680;28;20056;-61
2023/10/03 09:38:42;;;;;;;4.65;2.00;;;;;;;18.92;36.39;99990.34;5046834;28;20489;-60
2023/10/03 09:41:16;;;;;;;8.52;2.47;;;;;;;18.77;36.17;99952.25;5035248;28;20083;-61
2023/10/03 09:43:55;;;;;;;6.00;2.67;;;;;;;19.04;35.97;99980.00;5035296;28;20033;-60
2023/10/03 09:46:38;;;;;;;5.78;2.75;;;;;;;18.79;36.46;99982.75;5034558;28;20448;-61
2023/10/03 09:49:08;;;;;;;6.18;3.00;;;;;;;18.74;36.97;99971.59;5047334;28;20417;-61
2023/10/03 09:51:47;;;;;;;3.92;2.58;;;;;;;18.73;36.90;99973.44;5043562;28;20025;-61
2023/10/03 09:54:30;;;;;;;5.22;2.75;;;;;;;18.62;36.49;99923.13;5043799;28;20036;-62
2023/10/03 09:56:57;;;;;;;7.97;2.67;;;;;;;18.89;36.13;99939.97;5042567;28;20048;-63
2023/10/03 09:59:24;;;;;;;8.70;2.75;;;;;;;19.06;35.80;99943.53;5045238;28;20417;-63
2023/10/03 10:01:55;;;;;;;9.85;2.67;;;;;;;19.10;35.50;99951.31;5044416;28;20048;-61
2023/10/03 10:04:23;;;;;;;6.68;3.03;;;;;;;19.04;35.49;99945.53;5035131;28;20060;-62
2023/10/03 10:07:29;;;;;;;5.53;2.72;;;;;;;19.10;35.41;99937.75;5033537;28;20120;-61
2023/10/03 10:10:12;;;;;;;5.43;2.90;;;;;;;18.83;35.96;99937.16;5044524;28;20099;-62
2023/10/03 10:13:13;;;;;;;7.03;3.08;;;;;;;18.77;35.94;99944.13;5053276;28;20033;-63
2023/10/03 10:16:07;;;;;;;7.07;3.20;;;;;;;18.73;36.39;99946.31;5034321;28;20050;-62
2023/10/03 10:18:46;;;;;;;8.65;3.17;;;;;;;18.63;37.03;99943.81;5041067;28;20041;-62
2023/10/03 10:21:26;;;;;;;7.07;3.05;;;;;;;18.79;36.85;99945.59;5033253;28;20032;-61
2023/10/03 10:24:15;;;;;;;9.35;3.67;;;;;;;19.08;35.96;99940.63;5033779;28;20037;-63
2023/10/03 10:26:48;;;;;;;11.27;3.35;;;;;;;19.07;36.25;99938.94;5034376;28;20064;-62
2023/10/03 10:29:19;;;;;;;6.80;3.47;;;;;;;19.08;35.97;99933.34;5036404;28;20380;-61
2023/10/03 10:31:57;;;;;;;6.57;3.47;;;;;;;18.97;36.08;99928.25;5040645;28;20029;-62
2023/10/03 10:34:46;;;;;;;8.77;3.15;;;;;;;18.97;35.95;99927.44;5042672;28;20048;-62
2023/10/03 10:37:17;;;;;;;10.50;3.42;;;;;;;18.88;36.36;99932.03;5043601;28;20026;-62
2023/10/03 10:40:09;;;;;;;8.50;3.53;;;;;;;18.99;35.91;99928.97;5043297;28;20144;-62
2023/10/03 10:42:55;;;;;;;7.78;3.38;;;;;;;18.94;35.66;99932.19;5033776;28;20065;-63
2023/10/03 10:45:21;;;;;;;10.70;3.70;;;;;;;18.75;36.15;99928.00;5033732;28;20679;-65
2023/10/03 10:47:51;;;;;;;6.40;3.42;;;;;;;18.53;36.33;99885.38;5045880;28;20033;-66
2023/10/03 10:50:25;;;;;;;5.95;3.20;;;;;;;18.93;35.94;99925.06;5052589;28;20033;-64
2023/10/03 10:53:02;;;;;;;7.78;3.13;;;;;;;19.16;35.62;99921.56;5053670;28;20041;-62
2023/10/03 10:55:28;;;;;;;6.13;2.78;;;;;;;19.18;35.63;99921.41;5051121;28;20021;-64
2023/10/03 10:58:11;;;;;;;8.45;3.17;;;;;;;19.32;35.36;99917.09;5034758;28;20033;-63
2023/10/03 11:00:37;;;;;;;11.48;3.60;;;;;;;19.05;35.52;99901.13;5042118;28;20039;-62
2023/10/03 11:03:04;;;;;;;7.15;3.53;;;;;;;18.92;35.89;99895.41;5041296;28;20030;-63
2023/10/03 11:05:52;;;;;;;8.25;3.38;;;;;;;19.31;36.00;99913.53;5041015;28;20389;-61
2023/10/03 11:08:18;;;;;;;10.15;3.55;;;;;;;19.34;35.10;99885.19;5040737;28;20099;-64
2023/10/03 11:10:49;;;;;;;5.97;3.30;;;;;;;19.70;34.61;99902.75;5042105;28;20402;-61
2023/10/03 11:13:14;;;;;;;8.30;3.20;;;;;;;19.71;34.61;99901.72;5042414;28;20121;-60
2023/10/03 11:15:49;;;;;;;7.30;3.42;;;;;;;19.67;34.94;99905.81;5040807;28;20516;-62
2023/10/03 11:18:17;;;;;;;;;;;;;;;19.84;34.39;99903.81;5044820;28;20363;-63
2023/10/03 11:20:43;;;;;;;6.85;3.30;;;;;;;19.43;35.02;99883.25;5053217;28;19917;-63
2023/10/03 11:23:16;;;;;;;8.05;3.13;;;;;;;19.59;34.86;99898.56;5049869;28;20026;-61
2023/10/03 11:25:59;;;;;;;5.28;2.78;;;;;;;19.74;34.57;99893.19;5048570;28;20044;-59
2023/10/03 11:28:28;;;;;;;7.13;3.28;;;;;;;19.71;34.55;99904.44;5042031;28;20056;-63
2023/10/03 11:31:06;;;;;;;6.45;3.20;;;;;;;19.73;35.11;99910.53;5041697;28;20452;-63
2023/10/03 11:33:43;;;;;;;7.50;3.38;;;;;;;19.72;34.38;99904.25;5042027;28;20047;-63
2023/10/03 11:36:08;;;;;;;8.55;3.33;;;;;;;19.62;34.72;99893.63;5046046;28;20021;-62
2023/10/03 11:38:50;;;;;;;7.30;3.20;;;;;;;19.85;34.23;99908.22;5044767;28;20044;-63